Terminal Aerodrome Forecast
Issued by NWS Lake Charles, LA

Home | Current Version | Previous Version | Text Only | Print | Product List | Glossary On
Versions: 1 2 3 4 5 6 7 8 9 10 11 12 13
000
FTUS44 KLCH 120500
TAFLCH
TAF
KLCH 120520Z 1206/1306 VRB05KT P6SM SKC
      TEMPO 1208/1212 5SM BR
     FM121600 VRB06KT P6SM SCT040=

USA.gov is the U.S. government's official web portal to all federal, state and local government web resources and services.